createdAt,value
2023-10-23T00:02:12.876Z,4.37
2023-10-23T00:04:35.981Z,5.77
2023-10-23T00:06:57.888Z,3.77
2023-10-23T00:09:19.709Z,4.33
2023-10-23T00:11:41.544Z,6.10
2023-10-23T00:14:03.639Z,5.03
2023-10-23T00:16:25.568Z,4.63
2023-10-23T00:18:47.582Z,4.50
2023-10-23T00:21:09.654Z,4.43
2023-10-23T00:23:31.425Z,4.67
2023-10-23T00:25:53.162Z,3.50
2023-10-23T00:28:14.904Z,3.47
2023-10-23T00:30:37.511Z,4.93
2023-10-23T00:32:59.362Z,3.87
2023-10-23T00:35:21.199Z,3.93
2023-10-23T00:37:43.706Z,3.63
2023-10-23T00:40:06.888Z,4.10
2023-10-23T00:42:29.053Z,3.40
2023-10-23T00:44:52.460Z,3.70
2023-10-23T00:47:17.771Z,4.03
2023-10-23T00:49:40.229Z,4.87
2023-10-23T00:52:03.007Z,4.07
2023-10-23T00:54:25.834Z,3.90
2023-10-23T00:56:48.749Z,3.23
2023-10-23T00:59:11.416Z,3.80
2023-10-23T01:01:34.340Z,3.43
2023-10-23T01:03:56.110Z,4.20
2023-10-23T01:06:17.943Z,3.80
2023-10-23T01:08:40.741Z,4.50
2023-10-23T01:11:02.581Z,3.40
2023-10-23T01:13:26.640Z,4.33
2023-10-23T01:15:48.381Z,4.93
2023-10-23T01:18:10.194Z,4.13
2023-10-23T01:20:33.705Z,3.80
2023-10-23T01:22:59.628Z,4.07
2023-10-23T01:25:21.313Z,2.97
2023-10-23T01:27:44.078Z,3.47
2023-10-23T01:30:07.320Z,2.67
2023-10-23T01:32:29.819Z,2.97
2023-10-23T01:34:51.651Z,3.20
2023-10-23T01:37:13.393Z,3.40
2023-10-23T01:39:35.202Z,3.13
2023-10-23T01:41:56.952Z,2.80
2023-10-23T01:44:18.691Z,2.07
2023-10-23T01:46:40.468Z,3.20
2023-10-23T01:49:02.228Z,1.63
2023-10-23T01:51:23.984Z,3.07
2023-10-23T01:53:46.464Z,2.30
2023-10-23T01:56:09.568Z,2.77
2023-10-23T01:58:32.286Z,2.50
2023-10-23T02:00:54.088Z,2.37
2023-10-23T02:03:15.930Z,3.90
2023-10-23T02:05:37.749Z,3.33
2023-10-23T02:08:03.574Z,2.87
2023-10-23T02:10:25.416Z,2.47
2023-10-23T02:12:47.130Z,3.20
2023-10-23T02:15:11.389Z,2.60
2023-10-23T02:17:33.268Z,3.00
2023-10-23T02:19:55.113Z,2.90
2023-10-23T02:22:19.705Z,2.37
2023-10-23T02:24:42.257Z,2.47
2023-10-23T02:27:04.285Z,4.20
2023-10-23T02:29:27.551Z,3.15
2023-10-23T02:31:50.107Z,2.30
2023-10-23T02:34:12.163Z,3.17
2023-10-23T02:36:34.442Z,2.93
2023-10-23T02:38:56.308Z,4.10
2023-10-23T02:41:18.032Z,3.03
2023-10-23T02:43:39.696Z,3.67
2023-10-23T02:46:02.908Z,2.60
2023-10-23T02:48:24.750Z,4.53
2023-10-23T02:50:56.832Z,3.47
2023-10-23T02:53:18.559Z,3.53
2023-10-23T02:55:41.714Z,3.80
2023-10-23T02:58:03.443Z,2.23
2023-10-23T03:00:25.395Z,2.40
2023-10-23T03:02:47.219Z,4.03
2023-10-23T03:05:09.175Z,2.60
2023-10-23T03:07:30.920Z,3.17
2023-10-23T03:09:53.198Z,3.00
2023-10-23T03:12:14.973Z,3.03
2023-10-23T03:14:36.681Z,2.77
2023-10-23T03:16:59.036Z,4.07
2023-10-23T03:19:23.593Z,3.23
2023-10-23T03:24:07.872Z,2.80
2023-10-23T03:26:30.056Z,2.60
2023-10-23T03:28:52.329Z,3.73
2023-10-23T03:31:14.019Z,1.93
2023-10-23T03:33:35.755Z,3.17
2023-10-23T03:35:57.727Z,3.90
2023-10-23T03:38:19.467Z,3.60
2023-10-23T03:40:41.145Z,2.80
2023-10-23T03:43:03.017Z,3.70
2023-10-23T03:45:24.828Z,2.83
2023-10-23T03:47:46.535Z,2.53
2023-10-23T03:50:08.796Z,3.57
2023-10-23T03:52:31.569Z,2.23
2023-10-23T03:54:53.264Z,4.00
2023-10-23T03:57:14.993Z,2.33
2023-10-23T03:59:37.759Z,2.10
2023-10-23T04:01:59.584Z,3.60
2023-10-23T04:04:21.422Z,2.60
2023-10-23T04:06:43.238Z,4.47
2023-10-23T04:09:04.962Z,2.47
2023-10-23T04:11:27.604Z,2.57
2023-10-23T04:13:49.578Z,4.37
2023-10-23T04:16:11.532Z,2.20
2023-10-23T04:18:33.389Z,4.10
2023-10-23T04:21:13.164Z,3.50
2023-10-23T04:23:39.086Z,4.40
2023-10-23T04:26:01.151Z,2.67
2023-10-23T04:28:23.863Z,3.90
2023-10-23T04:30:45.592Z,2.77
2023-10-23T04:33:07.329Z,4.23
2023-10-23T04:35:29.942Z,3.73
2023-10-23T04:37:51.697Z,2.40
2023-10-23T04:40:14.055Z,2.90
2023-10-23T04:42:35.849Z,2.20
2023-10-23T04:44:57.599Z,2.47
2023-10-23T04:47:19.323Z,3.70
2023-10-23T04:49:41.471Z,1.90
2023-10-23T04:52:03.709Z,2.20
2023-10-23T04:54:25.448Z,3.70
2023-10-23T04:56:47.855Z,2.33
2023-10-23T04:59:09.977Z,2.57
2023-10-23T05:01:31.775Z,4.20
2023-10-23T05:03:54.564Z,3.03
2023-10-23T05:06:16.458Z,2.30
2023-10-23T05:08:38.177Z,3.70
2023-10-23T05:11:10.662Z,3.53
2023-10-23T05:13:33.482Z,3.70
2023-10-23T05:15:55.340Z,2.40
2023-10-23T05:18:17.058Z,2.70
2023-10-23T05:20:38.755Z,3.00
2023-10-23T05:23:00.477Z,2.40
2023-10-23T05:25:22.172Z,2.17
2023-10-23T05:27:43.997Z,2.30
2023-10-23T05:30:08.019Z,4.43
2023-10-23T05:32:29.803Z,2.95
2023-10-23T05:34:51.611Z,2.97
2023-10-23T05:37:13.900Z,4.50
2023-10-23T05:39:36.491Z,3.87
2023-10-23T05:41:58.312Z,2.47
2023-10-23T05:44:20.117Z,3.00
2023-10-23T05:46:42.754Z,2.43
2023-10-23T05:49:04.564Z,3.13
2023-10-23T05:51:26.372Z,3.07
2023-10-23T05:53:48.163Z,4.90
2023-10-23T05:56:09.928Z,2.60
2023-10-23T05:58:32.899Z,2.93
2023-10-23T06:00:54.838Z,2.73
2023-10-23T06:03:16.766Z,4.17
2023-10-23T06:05:42.869Z,3.60
2023-10-23T06:08:05.242Z,2.57
2023-10-23T06:10:27.058Z,3.40
2023-10-23T06:12:48.801Z,5.43
2023-10-23T06:15:11.375Z,3.43
2023-10-23T06:17:33.270Z,3.47
2023-10-23T06:19:55.074Z,4.97
2023-10-23T06:22:16.961Z,3.23
2023-10-23T06:24:38.738Z,3.43
2023-10-23T06:27:00.779Z,4.27
2023-10-23T06:29:22.527Z,2.77
2023-10-23T06:31:44.412Z,3.93
2023-10-23T06:34:06.151Z,3.03
2023-10-23T06:36:27.963Z,4.13
2023-10-23T06:38:49.751Z,2.93
2023-10-23T06:41:11.494Z,4.33
2023-10-23T06:43:35.034Z,4.10
2023-10-23T06:46:02.357Z,3.78
2023-10-23T06:48:24.672Z,2.73
2023-10-23T06:50:51.135Z,4.20
2023-10-23T06:53:12.889Z,4.23
2023-10-23T06:55:34.646Z,3.20
2023-10-23T06:57:56.427Z,3.30
2023-10-23T07:00:18.448Z,4.53
2023-10-23T07:02:40.280Z,3.33
2023-10-23T07:05:02.994Z,3.23
2023-10-23T07:07:30.026Z,3.17
2023-10-23T07:09:54.534Z,2.97
2023-10-23T07:12:17.528Z,4.90
2023-10-23T07:14:39.621Z,4.67
2023-10-23T07:17:01.420Z,3.27
2023-10-23T07:19:23.208Z,2.90
2023-10-23T07:21:44.901Z,4.60
2023-10-23T07:24:07.394Z,4.90
2023-10-23T07:26:29.115Z,4.63
2023-10-23T07:28:51.456Z,3.10
2023-10-23T07:31:14.517Z,6.10
2023-10-23T07:33:36.540Z,6.57
2023-10-23T07:36:16.450Z,4.73
2023-10-23T07:38:44.961Z,7.33
2023-10-23T07:41:06.728Z,5.17
2023-10-23T07:43:30.346Z,6.37
2023-10-23T07:45:57.286Z,5.88
2023-10-23T07:48:28.592Z,4.65
2023-10-23T07:50:51.277Z,4.57
2023-10-23T07:53:13.137Z,6.67
2023-10-23T07:55:38.100Z,7.63
2023-10-23T07:57:59.937Z,4.73
2023-10-23T08:00:22.488Z,7.67
2023-10-23T08:02:44.317Z,8.27
2023-10-23T08:05:06.518Z,8.17
2023-10-23T08:07:29.334Z,7.73
2023-10-23T08:09:51.089Z,5.80
2023-10-23T08:12:14.559Z,8.57
2023-10-23T08:14:36.677Z,8.85
2023-10-23T08:16:58.473Z,5.90
2023-10-23T08:19:21.493Z,9.37
2023-10-23T08:21:43.350Z,11.07
2023-10-23T08:24:05.860Z,12.57
2023-10-23T08:26:27.702Z,11.03
2023-10-23T08:29:01.905Z,11.83
2023-10-23T08:31:38.625Z,11.32
2023-10-23T08:34:02.885Z,9.93
2023-10-23T08:36:24.889Z,10.00
2023-10-23T08:38:46.776Z,10.07
2023-10-23T08:41:13.472Z,9.57
2023-10-23T08:43:35.195Z,8.97
2023-10-23T08:46:03.713Z,9.43
2023-10-23T08:48:25.641Z,9.33
2023-10-23T08:50:48.159Z,8.53
2023-10-23T08:53:12.555Z,8.93
2023-10-23T08:55:34.565Z,8.73
2023-10-23T08:58:00.802Z,9.10
2023-10-23T09:00:24.012Z,8.77
2023-10-23T09:02:51.633Z,8.90
2023-10-23T09:05:14.357Z,7.83
2023-10-23T09:07:36.645Z,7.63
2023-10-23T09:10:05.877Z,7.70
2023-10-23T09:12:36.990Z,7.50
2023-10-23T09:15:12.659Z,7.30
2023-10-23T09:17:34.404Z,7.23
2023-10-23T09:19:56.258Z,7.23
2023-10-23T09:22:18.091Z,8.10
2023-10-23T09:24:40.090Z,6.77
2023-10-23T09:27:01.923Z,7.47
2023-10-23T09:29:28.974Z,7.23
2023-10-23T09:31:53.033Z,6.70
2023-10-23T09:34:15.125Z,6.60
2023-10-23T09:36:36.943Z,6.37
2023-10-23T09:39:01.753Z,6.30
2023-10-23T09:41:23.517Z,6.20
2023-10-23T09:43:46.648Z,6.30
2023-10-23T09:46:12.897Z,5.90
2023-10-23T09:48:35.025Z,5.90
2023-10-23T09:51:00.753Z,6.23
2023-10-23T09:53:22.859Z,6.47
2023-10-23T09:55:46.823Z,5.90
2023-10-23T09:58:17.840Z,6.00
2023-10-23T10:00:41.275Z,6.47
2023-10-23T10:03:12.604Z,6.57
2023-10-23T10:05:47.226Z,6.60
2023-10-23T10:08:14.821Z,6.70
2023-10-23T10:10:40.849Z,6.77
2023-10-23T10:13:04.572Z,6.50
2023-10-23T10:15:27.844Z,6.15
2023-10-23T10:17:51.150Z,5.97
2023-10-23T10:20:13.260Z,6.00
2023-10-23T10:22:39.519Z,5.83
2023-10-23T10:25:01.701Z,6.50
2023-10-23T10:27:24.512Z,6.03
2023-10-23T10:29:47.895Z,6.33
2023-10-23T10:32:12.946Z,5.63
2023-10-23T10:34:55.666Z,6.83
2023-10-23T10:37:26.209Z,5.83
2023-10-23T10:39:49.386Z,6.33
2023-10-23T10:42:40.634Z,6.10
2023-10-23T10:45:11.092Z,5.97
2023-10-23T10:47:50.613Z,9.53
2023-10-23T10:50:13.250Z,9.83
2023-10-23T10:52:37.937Z,10.43
2023-10-23T10:55:02.166Z,11.03
2023-10-23T10:57:24.056Z,10.43
2023-10-23T10:59:45.745Z,12.93
2023-10-23T11:02:09.349Z,14.03
2023-10-23T11:04:35.160Z,8.82
2023-10-23T11:06:57.034Z,5.83
2023-10-23T11:09:21.922Z,5.13
2023-10-23T11:11:43.790Z,6.03
2023-10-23T11:14:05.928Z,5.63
2023-10-23T11:16:28.566Z,5.33
2023-10-23T11:18:50.426Z,6.90
2023-10-23T11:21:12.142Z,6.40
2023-10-23T11:23:33.913Z,6.07
2023-10-23T11:25:56.154Z,5.20
2023-10-23T11:28:19.251Z,6.17
2023-10-23T11:30:51.176Z,5.20
2023-10-23T11:33:15.049Z,6.27
2023-10-23T11:35:36.776Z,6.57
2023-10-23T11:37:58.534Z,6.07
2023-10-23T11:40:22.406Z,6.00
2023-10-23T11:42:50.244Z,6.75
2023-10-23T11:45:12.524Z,6.30
2023-10-23T11:47:34.303Z,6.83
2023-10-23T11:49:56.123Z,5.83
2023-10-23T11:52:17.992Z,6.53
2023-10-23T11:54:40.226Z,6.17
2023-10-23T11:57:01.891Z,5.53
2023-10-23T11:59:23.949Z,6.10
2023-10-23T12:01:47.130Z,6.13
2023-10-23T12:04:09.365Z,5.67
2023-10-23T12:06:31.297Z,5.90
2023-10-23T12:08:52.983Z,6.33
2023-10-23T12:11:14.911Z,5.77
2023-10-23T12:13:36.957Z,5.77
2023-10-23T12:15:58.719Z,5.93
2023-10-23T12:18:23.378Z,5.70
2023-10-23T12:20:45.184Z,5.43
2023-10-23T12:23:07.345Z,5.13
2023-10-23T12:25:29.144Z,5.47
2023-10-23T12:27:51.085Z,5.37
2023-10-23T12:30:16.862Z,5.20
2023-10-23T12:33:15.261Z,4.90
2023-10-23T12:35:31.605Z,5.10
2023-10-23T12:37:53.379Z,4.70
2023-10-23T12:40:15.203Z,5.03
2023-10-23T12:42:36.983Z,5.20
2023-10-23T12:44:58.676Z,4.70
2023-10-23T12:47:20.495Z,5.03
2023-10-23T12:49:43.554Z,5.00
2023-10-23T12:52:06.165Z,5.33
2023-10-23T12:54:28.121Z,5.90
2023-10-23T12:56:49.869Z,6.33
2023-10-23T12:59:11.575Z,5.90
2023-10-23T13:01:33.458Z,5.87
2023-10-23T13:03:55.459Z,5.70
2023-10-23T13:06:18.860Z,5.43
2023-10-23T13:08:42.022Z,5.70
2023-10-23T13:11:03.875Z,6.17
2023-10-23T13:13:25.652Z,5.70
2023-10-23T13:15:47.455Z,6.47
2023-10-23T13:18:09.405Z,7.67
2023-10-23T13:21:27.667Z,7.17
2023-10-23T13:23:12.976Z,7.80
2023-10-23T13:25:36.057Z,7.10
2023-10-23T13:27:57.842Z,8.10
2023-10-23T13:30:19.669Z,7.70
2023-10-23T13:32:41.565Z,7.00
2023-10-23T13:35:05.547Z,6.23
2023-10-23T13:37:28.166Z,5.95
2023-10-23T13:39:49.905Z,5.87
2023-10-23T13:42:11.619Z,6.20
2023-10-23T13:44:34.019Z,5.73
2023-10-23T13:46:56.009Z,5.90
2023-10-23T13:49:17.861Z,6.13
2023-10-23T13:51:39.673Z,5.80
2023-10-23T13:54:01.595Z,5.90
2023-10-23T13:56:23.428Z,6.00
2023-10-23T13:58:46.275Z,6.27
2023-10-23T14:01:08.008Z,5.60
2023-10-23T14:03:30.106Z,7.67
2023-10-23T14:05:51.950Z,8.10
2023-10-23T14:08:13.687Z,6.43
2023-10-23T14:10:35.542Z,6.87
2023-10-23T14:12:57.900Z,6.50
2023-10-23T14:15:21.591Z,6.60
2023-10-23T14:17:43.542Z,6.78
2023-10-23T14:20:07.311Z,6.90
2023-10-23T14:22:29.249Z,7.20
2023-10-23T14:24:51.077Z,6.90
2023-10-23T14:27:13.007Z,6.87
2023-10-23T14:29:34.900Z,6.90
2023-10-23T14:31:56.704Z,7.13
2023-10-23T14:34:18.572Z,7.27
2023-10-23T14:36:40.405Z,6.93
2023-10-23T14:39:02.174Z,7.33
2023-10-23T14:41:23.969Z,7.37
2023-10-23T14:43:45.665Z,8.20
2023-10-23T14:46:14.442Z,7.50
2023-10-23T14:48:36.245Z,7.73
2023-10-23T14:50:58.407Z,8.43
2023-10-23T14:53:20.379Z,7.90
2023-10-23T14:55:42.937Z,8.60
2023-10-23T14:58:04.819Z,9.20
2023-10-23T15:00:26.894Z,9.40
2023-10-23T15:02:49.090Z,10.10
2023-10-23T15:05:10.923Z,25.20
2023-10-23T15:07:33.062Z,18.20
2023-10-23T15:09:55.928Z,8.57
2023-10-23T15:12:17.789Z,8.07
2023-10-23T15:14:39.595Z,8.00
2023-10-23T15:17:01.362Z,7.17
2023-10-23T15:19:23.381Z,7.77
2023-10-23T15:21:45.214Z,7.50
2023-10-23T15:24:10.916Z,7.40
2023-10-23T15:26:32.661Z,7.30
2023-10-23T15:28:54.451Z,7.70
2023-10-23T15:31:16.551Z,7.20
2023-10-23T15:33:38.253Z,7.93
2023-10-23T15:36:01.512Z,7.60
2023-10-23T15:38:26.672Z,7.20
2023-10-23T15:40:49.994Z,7.53
2023-10-23T15:43:11.705Z,7.43
2023-10-23T15:45:38.537Z,8.10
2023-10-23T15:48:00.960Z,7.90
2023-10-23T15:50:22.939Z,7.80
2023-10-23T15:52:44.729Z,7.87
2023-10-23T15:55:07.027Z,7.77
2023-10-23T15:57:28.765Z,8.20
2023-10-23T15:59:50.678Z,7.63
2023-10-23T16:02:12.631Z,8.90
2023-10-23T16:04:34.509Z,7.80
2023-10-23T16:06:56.358Z,7.93
2023-10-23T16:09:28.065Z,8.10
2023-10-23T16:11:50.739Z,7.30
2023-10-23T16:14:12.843Z,10.40
2023-10-23T16:16:35.851Z,8.00
2023-10-23T16:18:58.028Z,7.67
2023-10-23T16:21:19.950Z,8.47
2023-10-23T16:23:43.092Z,7.60
2023-10-23T16:26:05.245Z,14.37
2023-10-23T16:28:27.474Z,9.47
2023-10-23T16:30:50.053Z,8.87
2023-10-23T16:33:12.249Z,8.37
2023-10-23T16:35:38.143Z,8.93
2023-10-23T16:37:59.918Z,8.07
2023-10-23T16:40:22.348Z,8.37
2023-10-23T16:42:47.386Z,8.47
2023-10-23T16:45:09.800Z,8.77
2023-10-23T16:47:31.894Z,8.43
2023-10-23T16:49:54.700Z,19.20
2023-10-23T16:52:16.820Z,13.40
2023-10-23T16:54:38.855Z,14.33
2023-10-23T16:57:00.796Z,14.87
2023-10-23T16:59:22.514Z,15.43
2023-10-23T17:01:44.375Z,14.47
2023-10-23T17:04:06.645Z,11.47
2023-10-23T17:06:28.357Z,12.23
2023-10-23T17:08:50.233Z,14.93
2023-10-23T17:11:12.377Z,17.90
2023-10-23T17:13:34.336Z,15.40
2023-10-23T17:15:56.118Z,23.40
2023-10-23T17:18:18.006Z,11.60
2023-10-23T17:20:42.235Z,11.83
2023-10-23T17:23:04.612Z,12.07
2023-10-23T17:25:26.498Z,13.40
2023-10-23T17:27:50.695Z,14.00
2023-10-23T17:30:13.338Z,13.25
2023-10-23T17:32:36.352Z,13.43
2023-10-23T17:34:58.241Z,15.20
2023-10-23T17:37:19.985Z,13.00
2023-10-23T17:39:42.003Z,14.47
2023-10-23T17:42:04.815Z,17.03
2023-10-23T17:44:28.006Z,13.00
2023-10-23T17:46:49.823Z,14.80
2023-10-23T17:49:12.211Z,15.60
2023-10-23T17:51:35.476Z,14.10
2023-10-23T17:54:05.451Z,15.90
2023-10-23T17:56:27.968Z,17.80
2023-10-23T17:58:50.159Z,16.13
2023-10-23T18:01:14.216Z,16.93
2023-10-23T18:03:36.948Z,16.30
2023-10-23T18:06:00.044Z,17.80
2023-10-23T18:08:21.732Z,16.97
2023-10-23T18:10:43.510Z,17.40
2023-10-23T18:13:05.244Z,18.43
2023-10-23T18:15:27.044Z,20.20
2023-10-23T18:17:48.989Z,17.70
2023-10-23T18:20:11.865Z,19.67
2023-10-23T18:22:33.688Z,19.03
2023-10-23T18:24:56.142Z,20.77
2023-10-23T18:27:18.071Z,19.27
2023-10-23T18:29:39.886Z,22.37
2023-10-23T18:32:01.734Z,19.23
2023-10-23T18:34:23.513Z,19.33
2023-10-23T18:36:45.821Z,19.83
2023-10-23T18:39:07.689Z,21.03
2023-10-23T18:41:29.654Z,20.40
2023-10-23T18:43:51.441Z,20.50
2023-10-23T18:46:14.720Z,19.10
2023-10-23T18:48:37.305Z,18.73
2023-10-23T18:51:02.114Z,17.63
2023-10-23T18:53:23.892Z,16.63
2023-10-23T18:55:45.667Z,16.47
2023-10-23T18:58:07.389Z,16.10
2023-10-23T19:00:29.362Z,19.20
2023-10-23T19:02:52.497Z,19.27
2023-10-23T19:05:14.299Z,37.20
2023-10-23T19:07:36.505Z,35.90
2023-10-23T19:09:59.465Z,36.73
2023-10-23T19:12:21.248Z,30.83
2023-10-23T19:14:43.145Z,24.40
2023-10-23T19:17:06.322Z,38.73
2023-10-23T19:19:29.323Z,32.17
2023-10-23T19:21:51.018Z,43.27
2023-10-23T19:24:15.443Z,38.93
2023-10-23T19:26:37.570Z,23.43
2023-10-23T19:29:00.271Z,21.73
2023-10-23T19:31:26.135Z,17.87
2023-10-23T19:33:48.512Z,14.97
2023-10-23T19:36:11.800Z,12.87
2023-10-23T19:38:33.896Z,13.27
2023-10-23T19:41:02.505Z,13.83
2023-10-23T19:43:32.275Z,11.30
2023-10-23T19:45:55.960Z,11.10
2023-10-23T19:48:18.345Z,11.57
2023-10-23T19:50:47.490Z,11.17
2023-10-23T19:53:11.448Z,10.73
2023-10-23T19:55:43.129Z,9.77
2023-10-23T19:58:08.476Z,8.45
2023-10-23T20:00:30.917Z,9.40
2023-10-23T20:02:52.725Z,9.10
2023-10-23T20:05:14.492Z,8.83
2023-10-23T20:07:36.246Z,8.37
2023-10-23T20:09:58.014Z,8.80
2023-10-23T20:12:19.779Z,7.80
2023-10-23T20:14:41.663Z,8.07
2023-10-23T20:17:03.691Z,7.00
2023-10-23T20:19:25.621Z,8.03
2023-10-23T20:21:47.475Z,6.77
2023-10-23T20:24:09.294Z,8.70
2023-10-23T20:26:31.092Z,7.87
2023-10-23T20:28:52.837Z,8.57
2023-10-23T20:31:19.217Z,7.90
2023-10-23T20:33:41.531Z,7.03
2023-10-23T20:36:03.414Z,7.93
2023-10-23T20:38:25.329Z,7.30
2023-10-23T20:40:47.185Z,7.70
2023-10-23T20:43:08.979Z,7.57
2023-10-23T20:45:30.885Z,12.30
2023-10-23T20:47:52.617Z,18.93
2023-10-23T20:50:14.462Z,8.80
2023-10-23T20:52:36.297Z,12.00
2023-10-23T20:54:58.623Z,8.80
2023-10-23T20:57:20.458Z,7.43
2023-10-23T20:59:42.231Z,7.77
2023-10-23T21:02:04.150Z,5.83
2023-10-23T21:04:26.132Z,6.93
2023-10-23T21:06:47.907Z,7.37
2023-10-23T21:09:09.639Z,5.97
2023-10-23T21:11:33.316Z,6.17
2023-10-23T21:13:55.073Z,5.22
2023-10-23T21:16:16.974Z,9.20
2023-10-23T21:18:38.669Z,10.70
2023-10-23T21:21:00.601Z,10.33
2023-10-23T21:23:22.438Z,17.57
2023-10-23T21:25:44.258Z,15.40
2023-10-23T21:28:06.170Z,14.37
2023-10-23T21:30:27.999Z,16.87
2023-10-23T21:32:50.760Z,14.23
2023-10-23T21:35:12.538Z,11.60
2023-10-23T21:37:34.309Z,9.00
2023-10-23T21:39:56.248Z,15.27
2023-10-23T21:42:18.083Z,9.47
2023-10-23T21:44:39.928Z,10.30
2023-10-23T21:47:01.943Z,10.17
2023-10-23T21:49:23.733Z,11.43
2023-10-23T21:51:45.923Z,12.97
2023-10-23T21:54:08.348Z,9.47
2023-10-23T21:56:43.374Z,7.77
2023-10-23T21:59:19.030Z,5.27
2023-10-23T22:01:41.646Z,6.17
2023-10-23T22:04:04.073Z,6.57
2023-10-23T22:06:26.355Z,7.03
2023-10-23T22:08:48.703Z,7.30
2023-10-23T22:11:11.903Z,7.20
2023-10-23T22:13:34.650Z,7.47
2023-10-23T22:15:56.594Z,7.67
2023-10-23T22:18:18.528Z,6.83
2023-10-23T22:20:40.425Z,7.13
2023-10-23T22:23:02.224Z,7.63
2023-10-23T22:25:23.917Z,8.00
2023-10-23T22:27:45.649Z,7.67
2023-10-23T22:30:08.284Z,8.00
2023-10-23T22:32:29.961Z,8.33
2023-10-23T22:34:51.695Z,8.77
2023-10-23T22:38:05.637Z,8.97
2023-10-23T22:39:55.283Z,8.63
2023-10-23T22:42:17.014Z,9.60
2023-10-23T22:44:39.679Z,7.83
2023-10-23T22:47:02.052Z,8.90
2023-10-23T22:49:24.247Z,8.53
2023-10-23T22:51:46.332Z,9.53
2023-10-23T22:54:08.861Z,8.87
2023-10-23T22:56:32.633Z,9.20
2023-10-23T22:59:04.279Z,9.48
2023-10-23T23:01:26.531Z,9.80
2023-10-23T23:03:52.275Z,8.87
2023-10-23T23:06:18.801Z,9.93
2023-10-23T23:08:43.664Z,9.97
2023-10-23T23:11:06.310Z,9.90
2023-10-23T23:13:28.396Z,10.67
2023-10-23T23:15:52.599Z,10.23
2023-10-23T23:18:20.065Z,11.20
2023-10-23T23:20:44.911Z,10.87
2023-10-23T23:23:06.691Z,11.67
2023-10-23T23:25:28.431Z,10.73
2023-10-23T23:27:50.245Z,11.57
2023-10-23T23:30:12.237Z,11.00
2023-10-23T23:32:34.084Z,11.60
2023-10-23T23:34:56.096Z,10.33
2023-10-23T23:37:17.905Z,9.93
2023-10-23T23:39:41.084Z,11.03
2023-10-23T23:42:03.321Z,11.27
2023-10-23T23:44:25.070Z,11.17
2023-10-23T23:46:46.854Z,11.33
2023-10-23T23:49:09.140Z,11.60
2023-10-23T23:51:31.196Z,10.57
2023-10-23T23:53:52.901Z,9.43
2023-10-23T23:56:14.728Z,11.13
2023-10-23T23:58:36.601Z,11.20
